This is the latest recevied weather packets stored in our database for station/object S59MA-6. If no packets are shown the sender has not sent any weather packets the latest 10 day(s).
| Time | Temp. | Humidity | Pressure | Rain* | Wind** | Luminosity | Snow |
|---|---|---|---|---|---|---|---|
| 1777842647 | 11.67° C | 61% | 1005.7 hPa | 0 mm | - | - | - |
| 1777840547 | 12.78° C | 59% | 1005.8 hPa | 253.75 mm | - | - | - |
| 1777840250 | 12.78° C | 59% | 1005.9 hPa | 253.75 mm | - | - | - |
| 1777839647 | 13.33° C | 58% | 1005.8 hPa | 8.13 mm | - | - | - |
| 1777837548 | 13.89° C | 56% | 1004.1 hPa | 253.75 mm | - | - | - |
| 1777836949 | 13.89° C | 55% | 1004.1 hPa | 253.75 mm | - | - | - |
| 1777836649 | 14.44° C | 55% | 1004.2 hPa | 253.75 mm | - | - | - |
| 1777835148 | 15.56° C | 52% | 1004.5 hPa | 253.75 mm | - | - | - |
| 1777834848 | 15.56° C | 51% | 1004.2 hPa | 253.75 mm | - | - | - |
| 1777833948 | 16.11° C | 49% | 1003.9 hPa | 253.75 mm | - | - | - |
| 1777832754 | 17.78° C | 46% | 1004.7 hPa | 253.75 mm | - | - | - |
| 1777832149 | 17.78° C | 45% | 1004.6 hPa | 8.13 mm | - | - | - |
| 1777831249 | 18.89° C | 44% | 1004.8 hPa | 140.21 mm | - | - | - |
| 1777830053 | 21.11° C | 41% | 1004 hPa | 253.75 mm | - | - | - |
| 1777829152 | 21.67° C | 38% | 1005 hPa | 253.75 mm | - | - | - |
| 1777827349 | 22.22° C | 36% | 1005.1 hPa | 0 mm | - | - | - |
| 1777825849 | 22.78° C | 39% | 1004.9 hPa | 0 mm | - | - | - |
| 1777825249 | 23.33° C | 39% | 1005.1 hPa | 0 mm | - | - | - |
| 1777824652 | 23.33° C | 38% | 1005 hPa | 0 mm | - | - | - |
| 1777822549 | 23.89° C | 37% | 1005.2 hPa | 0 mm | - | - | - |
| 1777822251 | 24.44° C | 37% | 1005.1 hPa | 0 mm | - | - | - |
| 1777821650 | 24.44° C | 37% | 1005.4 hPa | 0 mm | - | - | - |
| 1777820155 | 24.44° C | 36% | 1005.2 hPa | 253.75 mm | - | - | - |
| 1777819849 | 25° C | 36% | 1005.2 hPa | 253.75 mm | - | - | - |
| 1777818650 | 25° C | 37% | 1005.2 hPa | 253.75 mm | - | - | - |
* Rain latest hour (hover to see other rain measurements)
** Current wind speed in m/s (hover to see current wind gust speed)